Essex, VT

6:01 AM EST on February 09, 2016 (GMT -0500)
Grove Street | | Change Station
CLOSE
Current Station
Personal Weather Station
Location: Essex, VT
Elevation: 351 ft
Nearby Weather Stations

Elev 351 ft 44.50 °N, 73.11 °W | Updated 15 seconds ago

Snow
Snow
20.5 °F
Feels Like 20 °F
N
0.0
Wind Variable Wind from SE
Gusts 0.0 mph

Today
High -- | Low -- °F
--% Chance of Precip.
Yesterday
High -- | Low -- °F
Precip. -- in
Pressure 29.71 in
Visibility 8.0 miles
Clouds Overcast 4000 ft
Windchill 20 °F
Dew Point 14 °F
Humidity 75%
Rainfall 0.00 in
Snow Depth Not available.
7:01 AM 5:12 PM
New Moon, 1% visible
METAR KBTV 091054Z 13004KT 8SM OVC040 M07/M10 A2970 RMK AO2 SNE51 SLP061 P0001 T10671100
Pressure 29.71 in
Visibility 8.0 miles
Clouds Overcast 4000 ft
Windchill 20 °F
Dew Point 14 °F
Humidity 75%
Rainfall 0.00 in
Snow Depth Not available.
7:01 AM 5:12 PM
New Moon, 1% visible
METAR KBTV 091054Z 13004KT 8SM OVC040 M07/M10 A2970 RMK AO2 SNE51 SLP061 P0001 T10671100

10-Day Weather Forecast

Almanac

Astronomy

Feb. 09, 2016 Rise Set
Actual Time
Civil Twilight
Nautical Twilight
Astronomical Twilight
Moon
Length of Visible Light
Length of Day
Tomorrow will be .
, % of the Moon is Illuminated

Today's Extremes

State Highs State Lows

Community

WunderPhotos

Upload Photos

1,891,565 photos uploaded!

WunderBlog® & News

Nearby

Air Quality

  Air Quality AQ Index Pollutant
Not available.

Snow Depth

Station Depth Elevation

Earthquake Activity

City Distance Mag. Time & Date
Minimum magnitude displayed is 2.5.

Coastal Water Temperatures

Place Temperature

Stations

Nearby Weather Stations

Station Location Temp. Windchill Dew Point Humidity Wind Precip. Elev Updated Type
                   

Watches & Warnings

There are currently no watches in effect.